sensor_id;sensor_type;location;lat;lon;timestamp;P1;durP1;ratioP1;P2;durP2;ratioP2
67816;SDS011;54614;47.576;7.524;2023-02-28T00:01:09;2.83;;;1.40;;
67816;SDS011;54614;47.576;7.524;2023-02-28T00:03:35;3.03;;;1.53;;
67816;SDS011;54614;47.576;7.524;2023-02-28T00:06:01;1.77;;;1.50;;
67816;SDS011;54614;47.576;7.524;2023-02-28T00:08:29;1.57;;;1.47;;
67816;SDS011;54614;47.576;7.524;2023-02-28T00:10:55;1.67;;;1.57;;
67816;SDS011;54614;47.576;7.524;2023-02-28T00:13:21;1.30;;;1.20;;
67816;SDS011;54614;47.576;7.524;2023-02-28T00:15:47;1.17;;;1.17;;
67816;SDS011;54614;47.576;7.524;2023-02-28T00:18:23;1.63;;;1.50;;
67816;SDS011;54614;47.576;7.524;2023-02-28T00:20:49;1.63;;;1.53;;
67816;SDS011;54614;47.576;7.524;2023-02-28T00:23:14;1.40;;;1.30;;
67816;SDS011;54614;47.576;7.524;2023-02-28T00:25:40;1.33;;;1.23;;
67816;SDS011;54614;47.576;7.524;2023-02-28T00:28:06;4.77;;;1.40;;
67816;SDS011;54614;47.576;7.524;2023-02-28T00:30:32;1.40;;;1.30;;
67816;SDS011;54614;47.576;7.524;2023-02-28T00:32:58;1.40;;;1.30;;
67816;SDS011;54614;47.576;7.524;2023-02-28T00:35:24;2.00;;;1.40;;
67816;SDS011;54614;47.576;7.524;2023-02-28T00:37:50;1.63;;;1.53;;
67816;SDS011;54614;47.576;7.524;2023-02-28T00:40:16;1.57;;;1.47;;
67816;SDS011;54614;47.576;7.524;2023-02-28T00:42:42;2.13;;;1.47;;
67816;SDS011;54614;47.576;7.524;2023-02-28T00:45:08;2.83;;;1.53;;
67816;SDS011;54614;47.576;7.524;2023-02-28T00:47:34;3.13;;;1.23;;
67816;SDS011;54614;47.576;7.524;2023-02-28T00:50:03;1.50;;;1.40;;
67816;SDS011;54614;47.576;7.524;2023-02-28T00:52:30;1.50;;;1.40;;
67816;SDS011;54614;47.576;7.524;2023-02-28T00:54:56;1.40;;;1.30;;
67816;SDS011;54614;47.576;7.524;2023-02-28T00:57:22;1.40;;;1.30;;
67816;SDS011;54614;47.576;7.524;2023-02-28T00:59:48;2.20;;;1.40;;
67816;SDS011;54614;47.576;7.524;2023-02-28T01:02:14;2.17;;;1.33;;
67816;SDS011;54614;47.576;7.524;2023-02-28T01:04:40;2.30;;;1.30;;
67816;SDS011;54614;47.576;7.524;2023-02-28T01:07:06;3.97;;;1.40;;
67816;SDS011;54614;47.576;7.524;2023-02-28T01:09:34;1.30;;;1.20;;
67816;SDS011;54614;47.576;7.524;2023-02-28T01:11:59;1.80;;;1.30;;
67816;SDS011;54614;47.576;7.524;2023-02-28T01:14:25;2.13;;;1.30;;
67816;SDS011;54614;47.576;7.524;2023-02-28T01:16:51;1.37;;;1.27;;
67816;SDS011;54614;47.576;7.524;2023-02-28T01:19:17;1.40;;;1.30;;
67816;SDS011;54614;47.576;7.524;2023-02-28T01:21:43;2.00;;;1.40;;
67816;SDS011;54614;47.576;7.524;2023-02-28T01:24:09;1.40;;;1.30;;
67816;SDS011;54614;47.576;7.524;2023-02-28T01:26:35;1.70;;;1.40;;
67816;SDS011;54614;47.576;7.524;2023-02-28T01:29:01;2.30;;;1.40;;
67816;SDS011;54614;47.576;7.524;2023-02-28T01:31:27;1.80;;;1.40;;
67816;SDS011;54614;47.576;7.524;2023-02-28T01:33:53;1.50;;;1.40;;
67816;SDS011;54614;47.576;7.524;2023-02-28T01:36:20;1.40;;;1.30;;
67816;SDS011;54614;47.576;7.524;2023-02-28T01:38:48;1.50;;;1.40;;
67816;SDS011;54614;47.576;7.524;2023-02-28T01:41:17;1.97;;;1.37;;
67816;SDS011;54614;47.576;7.524;2023-02-28T01:43:57;2.67;;;1.27;;
67816;SDS011;54614;47.576;7.524;2023-02-28T01:46:31;1.30;;;1.20;;
67816;SDS011;54614;47.576;7.524;2023-02-28T01:51:36;1.47;;;1.37;;
67816;SDS011;54614;47.576;7.524;2023-02-28T01:54:12;1.50;;;1.40;;
67816;SDS011;54614;47.576;7.524;2023-02-28T01:56:47;2.50;;;1.40;;
67816;SDS011;54614;47.576;7.524;2023-02-28T02:02:29;3.57;;;1.40;;
67816;SDS011;54614;47.576;7.524;2023-02-28T02:04:58;1.20;;;1.20;;
67816;SDS011;54614;47.576;7.524;2023-02-28T02:07:38;1.93;;;1.37;;
67816;SDS011;54614;47.576;7.524;2023-02-28T02:10:18;1.40;;;1.30;;
67816;SDS011;54614;47.576;7.524;2023-02-28T02:31:22;1.33;;;1.23;;
67816;SDS011;54614;47.576;7.524;2023-02-28T02:40:20;1.23;;;1.20;;
67816;SDS011;54614;47.576;7.524;2023-02-28T02:43:14;4.20;;;1.30;;
67816;SDS011;54614;47.576;7.524;2023-02-28T02:45:49;1.43;;;1.33;;
67816;SDS011;54614;47.576;7.524;2023-02-28T02:48:25;1.30;;;1.20;;
67816;SDS011;54614;47.576;7.524;2023-02-28T02:50:57;1.50;;;1.40;;
67816;SDS011;54614;47.576;7.524;2023-02-28T02:53:30;1.93;;;1.50;;
67816;SDS011;54614;47.576;7.524;2023-02-28T02:56:03;1.10;;;1.10;;
67816;SDS011;54614;47.576;7.524;2023-02-28T02:58:35;1.23;;;1.20;;
67816;SDS011;54614;47.576;7.524;2023-02-28T03:01:07;1.60;;;1.30;;
67816;SDS011;54614;47.576;7.524;2023-02-28T03:03:37;1.33;;;1.27;;
67816;SDS011;54614;47.576;7.524;2023-02-28T03:06:04;1.50;;;1.40;;
67816;SDS011;54614;47.576;7.524;2023-02-28T03:08:33;3.90;;;1.00;;
67816;SDS011;54614;47.576;7.524;2023-02-28T03:11:03;1.17;;;1.17;;
67816;SDS011;54614;47.576;7.524;2023-02-28T03:13:51;2.20;;;1.40;;
67816;SDS011;54614;47.576;7.524;2023-02-28T03:25:33;1.20;;;1.10;;
67816;SDS011;54614;47.576;7.524;2023-02-28T03:28:47;2.60;;;1.30;;
67816;SDS011;54614;47.576;7.524;2023-02-28T03:31:32;1.30;;;1.20;;
67816;SDS011;54614;47.576;7.524;2023-02-28T03:34:16;1.40;;;1.30;;
67816;SDS011;54614;47.576;7.524;2023-02-28T03:36:52;1.33;;;1.10;;
67816;SDS011;54614;47.576;7.524;2023-02-28T03:39:25;1.47;;;1.37;;
67816;SDS011;54614;47.576;7.524;2023-02-28T03:42:01;1.30;;;1.20;;
67816;SDS011;54614;47.576;7.524;2023-02-28T03:44:44;1.33;;;1.23;;
67816;SDS011;54614;47.576;7.524;2023-02-28T03:47:17;1.30;;;1.20;;
67816;SDS011;54614;47.576;7.524;2023-02-28T03:50:00;1.37;;;1.27;;
67816;SDS011;54614;47.576;7.524;2023-02-28T03:52:37;1.27;;;1.20;;
67816;SDS011;54614;47.576;7.524;2023-02-28T03:55:15;2.57;;;1.30;;
67816;SDS011;54614;47.576;7.524;2023-02-28T03:58:01;2.00;;;1.30;;
67816;SDS011;54614;47.576;7.524;2023-02-28T04:00:37;1.20;;;1.20;;
67816;SDS011;54614;47.576;7.524;2023-02-28T04:03:09;1.20;;;1.10;;
67816;SDS011;54614;47.576;7.524;2023-02-28T04:05:43;1.20;;;1.20;;
67816;SDS011;54614;47.576;7.524;2023-02-28T04:08:21;1.33;;;1.23;;
67816;SDS011;54614;47.576;7.524;2023-02-28T04:13:39;1.27;;;1.23;;
67816;SDS011;54614;47.576;7.524;2023-02-28T04:16:08;1.30;;;1.20;;
67816;SDS011;54614;47.576;7.524;2023-02-28T04:18:38;2.00;;;1.10;;
67816;SDS011;54614;47.576;7.524;2023-02-28T04:21:05;1.30;;;1.20;;
67816;SDS011;54614;47.576;7.524;2023-02-28T04:23:32;1.97;;;1.33;;
67816;SDS011;54614;47.576;7.524;2023-02-28T04:25:58;1.33;;;1.27;;
67816;SDS011;54614;47.576;7.524;2023-02-28T04:28:24;1.80;;;1.10;;
67816;SDS011;54614;47.576;7.524;2023-02-28T04:30:54;3.90;;;1.20;;
67816;SDS011;54614;47.576;7.524;2023-02-28T04:33:26;1.30;;;1.20;;
67816;SDS011;54614;47.576;7.524;2023-02-28T04:36:00;1.10;;;1.10;;
67816;SDS011;54614;47.576;7.524;2023-02-28T04:38:38;1.40;;;1.30;;
67816;SDS011;54614;47.576;7.524;2023-02-28T04:41:04;1.63;;;1.10;;
67816;SDS011;54614;47.576;7.524;2023-02-28T04:43:30;2.23;;;1.27;;
67816;SDS011;54614;47.576;7.524;2023-02-28T04:45:57;2.17;;;1.33;;
67816;SDS011;54614;47.576;7.524;2023-02-28T04:48:28;2.40;;;1.20;;
67816;SDS011;54614;47.576;7.524;2023-02-28T04:51:00;1.77;;;1.10;;
67816;SDS011;54614;47.576;7.524;2023-02-28T04:53:35;1.57;;;1.17;;
67816;SDS011;54614;47.576;7.524;2023-02-28T04:56:03;1.20;;;1.20;;
67816;SDS011;54614;47.576;7.524;2023-02-28T04:58:31;2.03;;;1.30;;
67816;SDS011;54614;47.576;7.524;2023-02-28T05:01:01;1.13;;;1.10;;
67816;SDS011;54614;47.576;7.524;2023-02-28T05:03:40;1.80;;;1.10;;
67816;SDS011;54614;47.576;7.524;2023-02-28T05:06:07;1.80;;;1.23;;
67816;SDS011;54614;47.576;7.524;2023-02-28T05:08:34;1.30;;;1.20;;
67816;SDS011;54614;47.576;7.524;2023-02-28T05:11:00;1.30;;;1.20;;
67816;SDS011;54614;47.576;7.524;2023-02-28T05:13:29;2.33;;;1.20;;
67816;SDS011;54614;47.576;7.524;2023-02-28T05:15:55;1.27;;;1.20;;
67816;SDS011;54614;47.576;7.524;2023-02-28T05:18:21;1.90;;;1.20;;
67816;SDS011;54614;47.576;7.524;2023-02-28T05:20:47;2.50;;;1.30;;
67816;SDS011;54614;47.576;7.524;2023-02-28T05:23:13;2.67;;;1.30;;
67816;SDS011;54614;47.576;7.524;2023-02-28T05:25:42;1.30;;;1.20;;
67816;SDS011;54614;47.576;7.524;2023-02-28T05:28:08;2.07;;;1.23;;
67816;SDS011;54614;47.576;7.524;2023-02-28T05:30:34;3.30;;;1.23;;
67816;SDS011;54614;47.576;7.524;2023-02-28T05:33:00;1.30;;;1.20;;
67816;SDS011;54614;47.576;7.524;2023-02-28T05:35:26;1.33;;;1.23;;
67816;SDS011;54614;47.576;7.524;2023-02-28T05:37:52;2.23;;;1.20;;
67816;SDS011;54614;47.576;7.524;2023-02-28T05:40:18;1.47;;;1.00;;
67816;SDS011;54614;47.576;7.524;2023-02-28T05:42:45;1.13;;;1.13;;
67816;SDS011;54614;47.576;7.524;2023-02-28T05:45:12;1.63;;;1.30;;
67816;SDS011;54614;47.576;7.524;2023-02-28T05:47:38;1.07;;;1.07;;
67816;SDS011;54614;47.576;7.524;2023-02-28T05:50:04;2.30;;;1.20;;
67816;SDS011;54614;47.576;7.524;2023-02-28T05:52:31;3.40;;;1.30;;
67816;SDS011;54614;47.576;7.524;2023-02-28T05:54:57;1.40;;;1.30;;
67816;SDS011;54614;47.576;7.524;2023-02-28T05:57:23;1.50;;;1.10;;
67816;SDS011;54614;47.576;7.524;2023-02-28T05:59:49;2.43;;;1.17;;
67816;SDS011;54614;47.576;7.524;2023-02-28T06:02:15;3.80;;;1.20;;
67816;SDS011;54614;47.576;7.524;2023-02-28T06:04:43;1.53;;;1.10;;
67816;SDS011;54614;47.576;7.524;2023-02-28T06:07:09;2.97;;;1.30;;
67816;SDS011;54614;47.576;7.524;2023-02-28T06:09:36;4.83;;;1.30;;
67816;SDS011;54614;47.576;7.524;2023-02-28T06:12:03;2.07;;;1.30;;
67816;SDS011;54614;47.576;7.524;2023-02-28T06:14:32;3.97;;;1.37;;
67816;SDS011;54614;47.576;7.524;2023-02-28T06:16:59;4.73;;;1.43;;
67816;SDS011;54614;47.576;7.524;2023-02-28T06:19:26;3.70;;;1.30;;
67816;SDS011;54614;47.576;7.524;2023-02-28T06:21:55;1.83;;;1.40;;
67816;SDS011;54614;47.576;7.524;2023-02-28T06:24:22;3.37;;;1.30;;
67816;SDS011;54614;47.576;7.524;2023-02-28T06:26:49;4.07;;;1.27;;
67816;SDS011;54614;47.576;7.524;2023-02-28T06:29:16;1.40;;;1.30;;
67816;SDS011;54614;47.576;7.524;2023-02-28T06:31:43;2.53;;;1.27;;
67816;SDS011;54614;47.576;7.524;2023-02-28T06:34:11;13.03;;;1.67;;
67816;SDS011;54614;47.576;7.524;2023-02-28T06:36:38;4.87;;;1.60;;
67816;SDS011;54614;47.576;7.524;2023-02-28T06:39:05;10.77;;;1.60;;
67816;SDS011;54614;47.576;7.524;2023-02-28T06:41:32;4.57;;;1.30;;
67816;SDS011;54614;47.576;7.524;2023-02-28T06:44:03;10.90;;;1.43;;
67816;SDS011;54614;47.576;7.524;2023-02-28T06:46:30;7.03;;;2.00;;
67816;SDS011;54614;47.576;7.524;2023-02-28T06:48:57;8.00;;;1.70;;
67816;SDS011;54614;47.576;7.524;2023-02-28T06:51:23;5.97;;;1.70;;
67816;SDS011;54614;47.576;7.524;2023-02-28T06:53:49;11.73;;;1.70;;
67816;SDS011;54614;47.576;7.524;2023-02-28T06:56:16;7.70;;;1.50;;
67816;SDS011;54614;47.576;7.524;2023-02-28T06:58:48;5.93;;;1.60;;
67816;SDS011;54614;47.576;7.524;2023-02-28T07:01:15;25.03;;;1.80;;
67816;SDS011;54614;47.576;7.524;2023-02-28T07:03:43;8.07;;;1.83;;
67816;SDS011;54614;47.576;7.524;2023-02-28T07:06:11;8.37;;;1.73;;
67816;SDS011;54614;47.576;7.524;2023-02-28T07:08:37;8.00;;;1.60;;
67816;SDS011;54614;47.576;7.524;2023-02-28T07:11:05;6.07;;;1.50;;
67816;SDS011;54614;47.576;7.524;2023-02-28T07:13:31;6.93;;;1.60;;
67816;SDS011;54614;47.576;7.524;2023-02-28T07:15:58;9.20;;;1.60;;
67816;SDS011;54614;47.576;7.524;2023-02-28T07:18:27;10.00;;;1.50;;
67816;SDS011;54614;47.576;7.524;2023-02-28T07:20:53;7.13;;;1.80;;
67816;SDS011;54614;47.576;7.524;2023-02-28T07:23:20;5.00;;;1.40;;
67816;SDS011;54614;47.576;7.524;2023-02-28T07:25:47;3.97;;;1.50;;
67816;SDS011;54614;47.576;7.524;2023-02-28T07:28:14;8.53;;;1.83;;
67816;SDS011;54614;47.576;7.524;2023-02-28T07:30:40;5.40;;;1.60;;
67816;SDS011;54614;47.576;7.524;2023-02-28T07:33:06;6.57;;;1.60;;
67816;SDS011;54614;47.576;7.524;2023-02-28T07:35:32;6.67;;;1.60;;
67816;SDS011;54614;47.576;7.524;2023-02-28T07:37:58;6.83;;;1.63;;
67816;SDS011;54614;47.576;7.524;2023-02-28T07:40:25;6.43;;;1.80;;
67816;SDS011;54614;47.576;7.524;2023-02-28T07:42:51;3.40;;;1.43;;
67816;SDS011;54614;47.576;7.524;2023-02-28T07:45:17;4.30;;;1.40;;
67816;SDS011;54614;47.576;7.524;2023-02-28T07:47:44;4.73;;;1.73;;
67816;SDS011;54614;47.576;7.524;2023-02-28T07:50:12;6.13;;;1.70;;
67816;SDS011;54614;47.576;7.524;2023-02-28T07:52:40;8.50;;;1.50;;
67816;SDS011;54614;47.576;7.524;2023-02-28T07:55:06;3.87;;;1.50;;
67816;SDS011;54614;47.576;7.524;2023-02-28T07:57:34;2.07;;;1.30;;
67816;SDS011;54614;47.576;7.524;2023-02-28T08:00:01;4.80;;;1.70;;
67816;SDS011;54614;47.576;7.524;2023-02-28T08:02:30;2.43;;;1.50;;
67816;SDS011;54614;47.576;7.524;2023-02-28T08:04:56;5.40;;;1.60;;
67816;SDS011;54614;47.576;7.524;2023-02-28T08:07:22;5.23;;;1.60;;
67816;SDS011;54614;47.576;7.524;2023-02-28T08:09:48;3.27;;;1.43;;
67816;SDS011;54614;47.576;7.524;2023-02-28T08:12:13;2.70;;;1.30;;
67816;SDS011;54614;47.576;7.524;2023-02-28T08:14:39;6.87;;;1.60;;
67816;SDS011;54614;47.576;7.524;2023-02-28T08:17:05;2.37;;;1.50;;
67816;SDS011;54614;47.576;7.524;2023-02-28T08:19:31;4.00;;;1.50;;
67816;SDS011;54614;47.576;7.524;2023-02-28T08:21:57;4.33;;;1.43;;
67816;SDS011;54614;47.576;7.524;2023-02-28T08:24:23;3.37;;;1.40;;
67816;SDS011;54614;47.576;7.524;2023-02-28T08:26:49;1.73;;;1.47;;
67816;SDS011;54614;47.576;7.524;2023-02-28T08:29:15;4.63;;;1.60;;
67816;SDS011;54614;47.576;7.524;2023-02-28T08:31:41;4.20;;;1.50;;
67816;SDS011;54614;47.576;7.524;2023-02-28T08:34:11;2.70;;;1.50;;
67816;SDS011;54614;47.576;7.524;2023-02-28T08:36:40;2.73;;;1.40;;
67816;SDS011;54614;47.576;7.524;2023-02-28T08:39:07;2.97;;;1.70;;
67816;SDS011;54614;47.576;7.524;2023-02-28T08:41:34;3.17;;;1.70;;
67816;SDS011;54614;47.576;7.524;2023-02-28T08:44:00;1.57;;;1.40;;
67816;SDS011;54614;47.576;7.524;2023-02-28T08:46:26;1.50;;;1.40;;
67816;SDS011;54614;47.576;7.524;2023-02-28T08:48:53;3.33;;;1.63;;
67816;SDS011;54614;47.576;7.524;2023-02-28T08:51:20;1.50;;;1.40;;
67816;SDS011;54614;47.576;7.524;2023-02-28T08:53:51;3.57;;;1.30;;
67816;SDS011;54614;47.576;7.524;2023-02-28T08:56:20;6.07;;;1.50;;
67816;SDS011;54614;47.576;7.524;2023-02-28T08:58:47;1.90;;;1.50;;
67816;SDS011;54614;47.576;7.524;2023-02-28T09:01:19;5.50;;;1.63;;
67816;SDS011;54614;47.576;7.524;2023-02-28T09:03:49;2.10;;;1.10;;
67816;SDS011;54614;47.576;7.524;2023-02-28T09:06:17;7.50;;;1.30;;
67816;SDS011;54614;47.576;7.524;2023-02-28T09:08:45;2.23;;;1.40;;
67816;SDS011;54614;47.576;7.524;2023-02-28T09:11:12;3.27;;;1.37;;
67816;SDS011;54614;47.576;7.524;2023-02-28T09:13:38;2.77;;;1.47;;
67816;SDS011;54614;47.576;7.524;2023-02-28T09:16:05;2.60;;;1.53;;
67816;SDS011;54614;47.576;7.524;2023-02-28T09:18:35;5.27;;;1.80;;
67816;SDS011;54614;47.576;7.524;2023-02-28T09:21:06;3.50;;;1.60;;
67816;SDS011;54614;47.576;7.524;2023-02-28T09:23:34;4.10;;;1.53;;
67816;SDS011;54614;47.576;7.524;2023-02-28T09:26:03;5.17;;;1.40;;
67816;SDS011;54614;47.576;7.524;2023-02-28T09:28:30;3.53;;;1.50;;
67816;SDS011;54614;47.576;7.524;2023-02-28T09:30:56;3.27;;;1.40;;
67816;SDS011;54614;47.576;7.524;2023-02-28T09:33:23;1.67;;;1.40;;
67816;SDS011;54614;47.576;7.524;2023-02-28T09:35:50;3.13;;;1.37;;
67816;SDS011;54614;47.576;7.524;2023-02-28T09:38:23;1.40;;;1.30;;
67816;SDS011;54614;47.576;7.524;2023-02-28T09:40:53;4.57;;;1.47;;
67816;SDS011;54614;47.576;7.524;2023-02-28T09:43:47;3.27;;;1.40;;
67816;SDS011;54614;47.576;7.524;2023-02-28T09:49:07;2.00;;;1.40;;
67816;SDS011;54614;47.576;7.524;2023-02-28T09:51:49;1.40;;;1.30;;
67816;SDS011;54614;47.576;7.524;2023-02-28T09:54:38;2.93;;;1.67;;
67816;SDS011;54614;47.576;7.524;2023-02-28T09:59:57;3.27;;;1.50;;
67816;SDS011;54614;47.576;7.524;2023-02-28T10:06:41;3.13;;;1.57;;
67816;SDS011;54614;47.576;7.524;2023-02-28T10:11:38;3.53;;;1.30;;
67816;SDS011;54614;47.576;7.524;2023-02-28T10:14:10;3.27;;;1.60;;
67816;SDS011;54614;47.576;7.524;2023-02-28T10:22:14;1.30;;;1.20;;
67816;SDS011;54614;47.576;7.524;2023-02-28T10:24:54;2.50;;;1.40;;
67816;SDS011;54614;47.576;7.524;2023-02-28T10:27:26;2.13;;;1.57;;
67816;SDS011;54614;47.576;7.524;2023-02-28T10:29:57;1.77;;;1.43;;
67816;SDS011;54614;47.576;7.524;2023-02-28T10:32:26;1.57;;;1.30;;
67816;SDS011;54614;47.576;7.524;2023-02-28T10:37:43;1.40;;;1.30;;
67816;SDS011;54614;47.576;7.524;2023-02-28T10:43:45;2.23;;;1.50;;
67816;SDS011;54614;47.576;7.524;2023-02-28T10:45:51;1.87;;;1.50;;
67816;SDS011;54614;47.576;7.524;2023-02-28T10:48:34;2.20;;;1.30;;
67816;SDS011;54614;47.576;7.524;2023-02-28T10:51:15;1.60;;;1.33;;
67816;SDS011;54614;47.576;7.524;2023-02-28T10:53:53;1.67;;;1.40;;
67816;SDS011;54614;47.576;7.524;2023-02-28T10:56:21;2.27;;;1.30;;
67816;SDS011;54614;47.576;7.524;2023-02-28T11:01:52;1.33;;;1.23;;
67816;SDS011;54614;47.576;7.524;2023-02-28T11:04:20;1.30;;;1.20;;
67816;SDS011;54614;47.576;7.524;2023-02-28T11:07:06;2.07;;;1.43;;
67816;SDS011;54614;47.576;7.524;2023-02-28T11:09:50;1.60;;;1.50;;
67816;SDS011;54614;47.576;7.524;2023-02-28T11:12:23;1.43;;;1.30;;
67816;SDS011;54614;47.576;7.524;2023-02-28T11:14:55;1.70;;;1.60;;
67816;SDS011;54614;47.576;7.524;2023-02-28T11:17:29;1.60;;;1.50;;
67816;SDS011;54614;47.576;7.524;2023-02-28T11:20:01;2.17;;;1.80;;
67816;SDS011;54614;47.576;7.524;2023-02-28T11:22:39;2.17;;;1.63;;
67816;SDS011;54614;47.576;7.524;2023-02-28T11:25:28;2.50;;;1.70;;
67816;SDS011;54614;47.576;7.524;2023-02-28T11:28:02;1.70;;;1.60;;
67816;SDS011;54614;47.576;7.524;2023-02-28T11:33:51;2.77;;;1.53;;
67816;SDS011;54614;47.576;7.524;2023-02-28T11:36:24;2.43;;;1.40;;
67816;SDS011;54614;47.576;7.524;2023-02-28T11:38:58;2.57;;;1.40;;
67816;SDS011;54614;47.576;7.524;2023-02-28T11:41:48;1.50;;;1.40;;
67816;SDS011;54614;47.576;7.524;2023-02-28T11:45:00;1.57;;;1.40;;
67816;SDS011;54614;47.576;7.524;2023-02-28T11:54:40;2.17;;;1.60;;
67816;SDS011;54614;47.576;7.524;2023-02-28T11:57:22;1.60;;;1.50;;
67816;SDS011;54614;47.576;7.524;2023-02-28T12:08:53;1.50;;;1.40;;
67816;SDS011;54614;47.576;7.524;2023-02-28T12:20:55;1.43;;;1.33;;
67816;SDS011;54614;47.576;7.524;2023-02-28T12:26:57;1.43;;;1.33;;
67816;SDS011;54614;47.576;7.524;2023-02-28T12:29:32;1.60;;;1.50;;
67816;SDS011;54614;47.576;7.524;2023-02-28T12:32:16;1.83;;;1.40;;
67816;SDS011;54614;47.576;7.524;2023-02-28T12:34:54;1.57;;;1.30;;
67816;SDS011;54614;47.576;7.524;2023-02-28T12:37:34;1.40;;;1.30;;
67816;SDS011;54614;47.576;7.524;2023-02-28T12:40:21;1.37;;;1.30;;
67816;SDS011;54614;47.576;7.524;2023-02-28T12:42:52;1.60;;;1.50;;
67816;SDS011;54614;47.576;7.524;2023-02-28T12:45:27;1.30;;;1.20;;
67816;SDS011;54614;47.576;7.524;2023-02-28T12:48:46;1.30;;;1.20;;
67816;SDS011;54614;47.576;7.524;2023-02-28T12:51:31;1.40;;;1.30;;
67816;SDS011;54614;47.576;7.524;2023-02-28T12:56:52;1.50;;;1.33;;
67816;SDS011;54614;47.576;7.524;2023-02-28T12:59:50;1.47;;;1.37;;
67816;SDS011;54614;47.576;7.524;2023-02-28T13:10:47;1.47;;;1.37;;
67816;SDS011;54614;47.576;7.524;2023-02-28T13:13:20;1.50;;;1.33;;
67816;SDS011;54614;47.576;7.524;2023-02-28T13:15:57;1.27;;;1.20;;
67816;SDS011;54614;47.576;7.524;2023-02-28T13:21:21;1.40;;;1.30;;
67816;SDS011;54614;47.576;7.524;2023-02-28T13:29:00;2.07;;;1.40;;
67816;SDS011;54614;47.576;7.524;2023-02-28T13:34:31;1.50;;;1.40;;
67816;SDS011;54614;47.576;7.524;2023-02-28T13:37:47;1.43;;;1.33;;
67816;SDS011;54614;47.576;7.524;2023-02-28T13:42:52;2.13;;;1.40;;
67816;SDS011;54614;47.576;7.524;2023-02-28T13:58:50;1.30;;;1.30;;
67816;SDS011;54614;47.576;7.524;2023-02-28T14:07:33;1.40;;;1.30;;
67816;SDS011;54614;47.576;7.524;2023-02-28T14:11:24;1.37;;;1.30;;
67816;SDS011;54614;47.576;7.524;2023-02-28T14:13:36;1.23;;;1.23;;
67816;SDS011;54614;47.576;7.524;2023-02-28T14:16:25;1.67;;;1.47;;
67816;SDS011;54614;47.576;7.524;2023-02-28T14:19:03;1.57;;;1.47;;
67816;SDS011;54614;47.576;7.524;2023-02-28T14:27:58;1.20;;;1.20;;
67816;SDS011;54614;47.576;7.524;2023-02-28T14:31:23;1.40;;;1.30;;
67816;SDS011;54614;47.576;7.524;2023-02-28T14:37:01;1.30;;;1.20;;
67816;SDS011;54614;47.576;7.524;2023-02-28T14:39:29;2.13;;;1.40;;
67816;SDS011;54614;47.576;7.524;2023-02-28T14:41:56;1.50;;;1.40;;
67816;SDS011;54614;47.576;7.524;2023-02-28T14:44:29;1.57;;;1.47;;
67816;SDS011;54614;47.576;7.524;2023-02-28T14:46:59;1.50;;;1.40;;
67816;SDS011;54614;47.576;7.524;2023-02-28T14:49:37;1.40;;;1.30;;
67816;SDS011;54614;47.576;7.524;2023-02-28T14:52:26;1.20;;;1.20;;
67816;SDS011;54614;47.576;7.524;2023-02-28T14:54:58;1.20;;;1.20;;
67816;SDS011;54614;47.576;7.524;2023-02-28T14:57:41;1.77;;;1.40;;
67816;SDS011;54614;47.576;7.524;2023-02-28T15:00:25;1.37;;;1.27;;
67816;SDS011;54614;47.576;7.524;2023-02-28T15:02:58;1.10;;;1.10;;
67816;SDS011;54614;47.576;7.524;2023-02-28T15:05:30;1.53;;;1.43;;
67816;SDS011;54614;47.576;7.524;2023-02-28T15:08:11;1.10;;;1.10;;
67816;SDS011;54614;47.576;7.524;2023-02-28T15:10:42;3.20;;;1.50;;
67816;SDS011;54614;47.576;7.524;2023-02-28T15:13:40;2.67;;;1.50;;
67816;SDS011;54614;47.576;7.524;2023-02-28T15:16:20;6.43;;;1.70;;
67816;SDS011;54614;47.576;7.524;2023-02-28T15:21:44;1.50;;;1.40;;
67816;SDS011;54614;47.576;7.524;2023-02-28T15:24:17;1.50;;;1.40;;
67816;SDS011;54614;47.576;7.524;2023-02-28T15:26:51;1.30;;;1.20;;
67816;SDS011;54614;47.576;7.524;2023-02-28T15:29:23;1.40;;;1.30;;
67816;SDS011;54614;47.576;7.524;2023-02-28T15:32:00;10.63;;;1.50;;
67816;SDS011;54614;47.576;7.524;2023-02-28T15:34:38;1.50;;;1.40;;
67816;SDS011;54614;47.576;7.524;2023-02-28T15:37:29;2.23;;;1.23;;
67816;SDS011;54614;47.576;7.524;2023-02-28T15:45:48;1.50;;;1.40;;
67816;SDS011;54614;47.576;7.524;2023-02-28T15:48:33;1.63;;;1.40;;
67816;SDS011;54614;47.576;7.524;2023-02-28T15:53:43;1.30;;;1.20;;
67816;SDS011;54614;47.576;7.524;2023-02-28T15:56:20;1.53;;;1.40;;
67816;SDS011;54614;47.576;7.524;2023-02-28T15:58:59;2.00;;;1.30;;
67816;SDS011;54614;47.576;7.524;2023-02-28T16:01:31;2.00;;;1.63;;
67816;SDS011;54614;47.576;7.524;2023-02-28T16:04:00;2.37;;;1.93;;
67816;SDS011;54614;47.576;7.524;2023-02-28T16:06:41;1.77;;;1.67;;
67816;SDS011;54614;47.576;7.524;2023-02-28T16:09:25;2.20;;;1.60;;
67816;SDS011;54614;47.576;7.524;2023-02-28T16:11:53;2.03;;;1.60;;
67816;SDS011;54614;47.576;7.524;2023-02-28T16:14:25;1.50;;;1.40;;
67816;SDS011;54614;47.576;7.524;2023-02-28T16:16:55;1.83;;;1.43;;
67816;SDS011;54614;47.576;7.524;2023-02-28T16:19:28;1.50;;;1.40;;
67816;SDS011;54614;47.576;7.524;2023-02-28T16:21:54;1.97;;;1.10;;
67816;SDS011;54614;47.576;7.524;2023-02-28T16:24:20;1.40;;;1.30;;
67816;SDS011;54614;47.576;7.524;2023-02-28T16:26:47;1.50;;;1.40;;
67816;SDS011;54614;47.576;7.524;2023-02-28T16:29:27;2.10;;;1.60;;
67816;SDS011;54614;47.576;7.524;2023-02-28T16:31:58;3.27;;;1.50;;
67816;SDS011;54614;47.576;7.524;2023-02-28T16:34:26;2.70;;;1.50;;
67816;SDS011;54614;47.576;7.524;2023-02-28T16:36:52;1.50;;;1.40;;
67816;SDS011;54614;47.576;7.524;2023-02-28T16:39:18;4.93;;;1.53;;
67816;SDS011;54614;47.576;7.524;2023-02-28T16:41:48;3.87;;;1.40;;
67816;SDS011;54614;47.576;7.524;2023-02-28T16:44:36;1.50;;;1.40;;
67816;SDS011;54614;47.576;7.524;2023-02-28T16:47:02;2.20;;;1.70;;
67816;SDS011;54614;47.576;7.524;2023-02-28T16:49:29;1.60;;;1.50;;
67816;SDS011;54614;47.576;7.524;2023-02-28T16:51:55;2.47;;;1.67;;
67816;SDS011;54614;47.576;7.524;2023-02-28T16:54:22;1.90;;;1.70;;
67816;SDS011;54614;47.576;7.524;2023-02-28T16:56:48;4.13;;;1.70;;
67816;SDS011;54614;47.576;7.524;2023-02-28T16:59:15;1.70;;;1.60;;
67816;SDS011;54614;47.576;7.524;2023-02-28T17:01:47;2.90;;;1.70;;
67816;SDS011;54614;47.576;7.524;2023-02-28T17:04:13;1.67;;;1.57;;
67816;SDS011;54614;47.576;7.524;2023-02-28T17:06:40;1.70;;;1.60;;
67816;SDS011;54614;47.576;7.524;2023-02-28T17:09:08;2.17;;;1.40;;
67816;SDS011;54614;47.576;7.524;2023-02-28T17:11:43;3.97;;;1.50;;
67816;SDS011;54614;47.576;7.524;2023-02-28T17:14:09;1.63;;;1.53;;
67816;SDS011;54614;47.576;7.524;2023-02-28T17:16:35;1.93;;;1.50;;
67816;SDS011;54614;47.576;7.524;2023-02-28T17:19:05;3.80;;;1.60;;
67816;SDS011;54614;47.576;7.524;2023-02-28T17:21:36;6.57;;;1.77;;
67816;SDS011;54614;47.576;7.524;2023-02-28T17:24:02;3.97;;;2.00;;
67816;SDS011;54614;47.576;7.524;2023-02-28T17:26:29;3.30;;;2.10;;
67816;SDS011;54614;47.576;7.524;2023-02-28T17:28:55;3.50;;;2.10;;
67816;SDS011;54614;47.576;7.524;2023-02-28T17:31:22;4.70;;;2.30;;
67816;SDS011;54614;47.576;7.524;2023-02-28T17:33:50;6.20;;;2.20;;
67816;SDS011;54614;47.576;7.524;2023-02-28T17:36:18;4.90;;;2.40;;
67816;SDS011;54614;47.576;7.524;2023-02-28T17:38:58;5.53;;;3.13;;
67816;SDS011;54614;47.576;7.524;2023-02-28T17:41:26;5.27;;;2.87;;
67816;SDS011;54614;47.576;7.524;2023-02-28T17:43:54;6.47;;;2.90;;
67816;SDS011;54614;47.576;7.524;2023-02-28T17:46:22;6.17;;;3.13;;
67816;SDS011;54614;47.576;7.524;2023-02-28T17:48:50;3.70;;;2.60;;
67816;SDS011;54614;47.576;7.524;2023-02-28T17:51:22;3.80;;;2.50;;
67816;SDS011;54614;47.576;7.524;2023-02-28T17:53:49;6.00;;;2.77;;
67816;SDS011;54614;47.576;7.524;2023-02-28T17:56:17;5.03;;;2.60;;
67816;SDS011;54614;47.576;7.524;2023-02-28T17:58:46;5.50;;;2.63;;
67816;SDS011;54614;47.576;7.524;2023-02-28T18:01:12;8.57;;;2.67;;